Time;durP1;ratioP1;P1;durP2;ratioP2;P2;SDS_P1;SDS_P2;PMS_P1;PMS_P2;Temp;Humidity;BMP_temperature;BMP_pressure;BME280_temperature;BME280_humidity;BME280_pressure;Samples;Min_cycle;Max_cycle;Signal;HPM_P1;HPM_P2
2020/12/18 00:01:07;;;;;;;13.73;6.50;;;6.40;99.90;;;;;;5011690;28;21037;-73
2020/12/18 00:03:32;;;;;;;11.03;6.67;;;6.30;99.90;;;;;;5011759;28;20692;-72
2020/12/18 00:05:58;;;;;;;7.60;5.03;;;6.30;99.90;;;;;;5012058;28;20180;-72
2020/12/18 00:08:23;;;;;;;8.20;5.93;;;6.30;99.90;;;;;;5011975;28;20571;-73
2020/12/18 00:10:49;;;;;;;14.20;5.63;;;6.30;99.90;;;;;;5011411;28;20697;-73
2020/12/18 00:13:15;;;;;;;16.27;5.60;;;6.30;99.90;;;;;;5011946;28;20172;-74
2020/12/18 00:15:40;;;;;;;9.90;6.40;;;6.20;99.90;;;;;;5011793;28;20168;-72
2020/12/18 00:18:06;;;;;;;7.43;5.30;;;6.20;99.90;;;;;;5011950;28;20259;-73
2020/12/18 00:20:31;;;;;;;6.30;5.50;;;6.20;99.90;;;;;;5015219;28;20192;-73
2020/12/18 00:22:57;;;;;;;7.80;5.43;;;6.20;99.90;;;;;;5030806;28;20180;-73
2020/12/18 00:25:22;;;;;;;8.20;5.57;;;6.30;99.90;;;;;;5015479;28;20234;-73
2020/12/18 00:27:48;;;;;;;8.23;5.80;;;6.30;99.90;;;;;;5015375;28;20255;-73
2020/12/18 00:30:14;;;;;;;7.13;5.80;;;6.30;99.90;;;;;;5015295;28;20192;-73
2020/12/18 00:32:40;;;;;;;10.53;5.57;;;6.20;99.90;;;;;;5015282;28;20172;-73
2020/12/18 00:35:07;;;;;;;12.73;5.30;;;6.20;99.90;;;;;;5015554;28;20207;-73
2020/12/18 00:37:33;;;;;;;5.30;4.80;;;6.20;99.90;;;;;;5015381;28;20434;-73
2020/12/18 00:39:59;;;;;;;8.43;4.30;;;6.20;99.90;;;;;;5015312;28;20920;-76
2020/12/18 00:42:24;;;;;;;9.73;5.50;;;6.20;99.90;;;;;;5014905;28;20501;-73
2020/12/18 00:44:50;;;;;;;19.50;6.60;;;6.00;99.90;;;;;;5015100;28;20462;-73
2020/12/18 00:47:16;;;;;;;6.03;5.30;;;5.80;99.90;;;;;;5015202;28;20179;-73
2020/12/18 00:49:41;;;;;;;5.73;4.53;;;5.70;99.90;;;;;;5015347;28;20541;-74
2020/12/18 00:52:08;;;;;;;7.27;4.40;;;5.70;99.90;;;;;;5014551;28;20466;-73
2020/12/18 00:54:34;;;;;;;6.30;4.57;;;5.70;99.90;;;;;;5014358;28;20255;-74
2020/12/18 00:57:00;;;;;;;5.70;4.30;;;5.70;99.90;;;;;;5006646;28;20439;-74
2020/12/18 00:59:25;;;;;;;4.80;4.00;;;5.70;99.90;;;;;;5014784;28;20457;-72
2020/12/18 01:02:04;;;;;;;4.80;3.63;;;5.80;99.90;;;;;;5014367;28;20247;-73
2020/12/18 01:04:30;;;;;;;7.23;4.40;;;5.80;99.90;;;;;;5014957;28;20207;-73
2020/12/18 01:06:56;;;;;;;4.73;3.40;;;5.90;99.90;;;;;;5013876;28;20435;-73
2020/12/18 01:09:23;;;;;;;5.23;3.43;;;5.90;99.90;;;;;;5010776;28;20512;-73
2020/12/18 01:11:49;;;;;;;5.83;3.60;;;5.90;99.90;;;;;;5012929;28;20995;-73
2020/12/18 01:14:15;;;;;;;4.73;4.33;;;5.90;99.90;;;;;;5014469;28;20423;-73
2020/12/18 01:16:41;;;;;;;3.23;2.93;;;5.90;99.90;;;;;;5013548;28;20431;-73
2020/12/18 01:19:06;;;;;;;4.77;3.53;;;6.00;99.90;;;;;;5014986;28;20508;-73
2020/12/18 01:21:33;;;;;;;5.60;3.73;;;5.90;99.90;;;;;;5014446;28;20199;-73
2020/12/18 01:23:58;;;;;;;4.67;3.40;;;5.90;99.90;;;;;;5014393;28;20684;-73
2020/12/18 01:26:24;;;;;;;6.83;4.40;;;5.90;99.90;;;;;;5009160;28;20462;-73
2020/12/18 01:28:50;;;;;;;10.90;4.07;;;6.00;99.90;;;;;;5014076;28;20173;-73
2020/12/18 01:31:15;;;;;;;6.03;4.10;;;6.00;99.90;;;;;;5013174;28;20204;-73
2020/12/18 01:33:41;;;;;;;8.37;4.87;;;6.00;99.90;;;;;;5014339;28;20427;-73
2020/12/18 01:36:08;;;;;;;6.07;4.00;;;5.90;99.90;;;;;;5014250;28;20176;-73
2020/12/18 01:38:34;;;;;;;7.97;3.80;;;5.90;99.90;;;;;;5029442;28;20716;-73
2020/12/18 01:41:00;;;;;;;6.00;4.00;;;5.80;99.90;;;;;;5013509;28;20793;-73
2020/12/18 01:43:25;;;;;;;7.10;3.90;;;5.70;99.90;;;;;;5013783;28;20473;-73
2020/12/18 01:45:51;;;;;;;7.23;4.20;;;5.70;99.90;;;;;;5014029;28;20242;-73
2020/12/18 01:48:17;;;;;;;12.60;3.87;;;5.70;99.90;;;;;;5014247;28;20188;-73
2020/12/18 01:50:42;;;;;;;4.63;3.10;;;5.80;99.90;;;;;;5016179;28;20199;-73
2020/12/18 01:53:10;;;;;;;8.37;4.30;;;5.70;99.90;;;;;;5014375;28;20172;-73
2020/12/18 01:55:36;;;;;;;6.10;3.90;;;5.70;99.90;;;;;;5014326;28;20494;-73
2020/12/18 01:58:02;;;;;;;6.13;3.50;;;5.80;99.90;;;;;;5014559;28;20442;-73
2020/12/18 02:00:29;;;;;;;6.17;3.40;;;5.80;99.90;;;;;;5011159;28;20443;-74
2020/12/18 02:02:55;;;;;;;6.50;3.13;;;5.80;99.90;;;;;;5045473;28;20180;-73
2020/12/18 02:05:21;;;;;;;8.50;3.70;;;5.80;99.90;;;;;;5013827;28;20484;-73
2020/12/18 02:08:01;;;;;;;4.93;4.10;;;5.80;99.90;;;;;;5013604;28;20419;-73
2020/12/18 02:10:26;;;;;;;5.43;3.53;;;5.80;99.90;;;;;;5013385;28;20454;-72
2020/12/18 02:12:53;;;;;;;6.90;2.80;;;5.80;99.90;;;;;;5012560;28;20415;-73
2020/12/18 02:15:20;;;;;;;11.57;4.90;;;5.80;99.90;;;;;;5015632;28;20195;-73
2020/12/18 02:17:46;;;;;;;4.90;4.20;;;5.80;99.90;;;;;;5010200;28;20427;-73
2020/12/18 02:20:11;;;;;;;12.57;4.30;;;5.70;99.90;;;;;;5013113;28;20439;-73
2020/12/18 02:22:37;;;;;;;8.23;4.23;;;5.60;99.90;;;;;;5014221;28;20184;-73
2020/12/18 02:25:04;;;;;;;6.60;3.97;;;5.40;99.90;;;;;;5014898;28;20196;-73
2020/12/18 02:27:30;;;;;;;5.27;3.40;;;5.50;99.90;;;;;;5014185;28;20226;-73
2020/12/18 02:29:56;;;;;;;6.53;3.60;;;5.50;99.90;;;;;;5013643;28;20843;-72
2020/12/18 02:32:22;;;;;;;4.60;4.20;;;5.50;99.90;;;;;;5012940;28;20207;-72
2020/12/18 02:34:48;;;;;;;7.97;4.67;;;5.40;99.90;;;;;;5007525;28;20458;-73
2020/12/18 02:37:13;;;;;;;7.03;4.60;;;5.30;99.90;;;;;;5011501;28;20852;-73
2020/12/18 02:39:39;;;;;;;9.43;5.60;;;5.30;99.90;;;;;;5045046;28;20172;-73
2020/12/18 02:42:04;;;;;;;15.57;5.87;;;5.20;99.90;;;;;;5013166;28;20246;-73
2020/12/18 02:44:30;;;;;;;8.80;5.90;;;5.10;99.90;;;;;;5013055;28;20196;-74
2020/12/18 02:46:56;;;;;;;9.37;6.23;;;5.10;99.90;;;;;;5012215;28;20176;-74
2020/12/18 02:49:22;;;;;;;9.63;5.20;;;5.10;99.90;;;;;;5011573;28;20268;-73
2020/12/18 02:51:47;;;;;;;6.80;5.07;;;5.10;99.90;;;;;;5009918;28;21124;-73
2020/12/18 02:54:13;;;;;;;11.60;5.80;;;5.20;99.90;;;;;;5012542;28;20466;-73
2020/12/18 02:56:39;;;;;;;9.73;5.10;;;5.10;99.90;;;;;;5011733;28;20192;-73
2020/12/18 02:59:05;;;;;;;8.07;5.37;;;5.10;99.90;;;;;;5012042;28;20443;-73
2020/12/18 03:01:31;;;;;;;10.77;5.90;;;5.00;99.90;;;;;;5025959;28;20474;-73
2020/12/18 03:03:57;;;;;;;7.23;5.90;;;5.00;99.90;;;;;;5012581;28;20203;-73
2020/12/18 03:06:22;;;;;;;7.80;6.40;;;4.90;99.90;;;;;;5027851;28;20430;-73
2020/12/18 03:08:48;;;;;;;9.70;6.63;;;4.90;99.90;;;;;;5012827;28;20186;-73
2020/12/18 03:11:14;;;;;;;7.83;5.20;;;5.00;99.90;;;;;;5011478;28;20188;-72
2020/12/18 03:13:40;;;;;;;9.10;8.30;;;5.00;99.90;;;;;;5012676;28;20283;-72
2020/12/18 03:16:05;;;;;;;13.77;6.30;;;5.00;99.90;;;;;;5010575;28;20688;-73
2020/12/18 03:18:31;;;;;;;9.73;6.70;;;4.90;99.90;;;;;;5011837;28;20439;-73
2020/12/18 03:20:57;;;;;;;8.70;6.43;;;4.90;99.90;;;;;;5027711;28;20195;-73
2020/12/18 03:23:22;;;;;;;10.87;8.43;;;4.90;99.90;;;;;;5013512;28;20188;-73
2020/12/18 03:25:48;;;;;;;10.50;6.30;;;4.90;99.90;;;;;;5027523;28;20569;-73
2020/12/18 03:28:13;;;;;;;13.47;6.80;;;4.90;99.90;;;;;;5012397;28;20185;-72
2020/12/18 03:30:39;;;;;;;11.03;6.83;;;4.90;99.90;;;;;;5010747;28;20204;-74
2020/12/18 03:33:05;;;;;;;10.70;7.63;;;4.90;99.90;;;;;;5011958;28;20232;-74
2020/12/18 03:35:31;;;;;;;11.47;7.50;;;4.80;99.90;;;;;;5027588;28;20258;-72
2020/12/18 03:37:56;;;;;;;11.33;7.77;;;4.80;99.90;;;;;;5011646;28;20788;-73
2020/12/18 03:40:22;;;;;;;9.93;7.87;;;4.80;99.90;;;;;;5008382;28;20226;-73
2020/12/18 03:42:48;;;;;;;16.40;7.53;;;4.90;99.90;;;;;;5011439;28;20531;-73
2020/12/18 03:45:13;;;;;;;13.13;8.20;;;4.90;99.90;;;;;;5010632;28;20454;-73
2020/12/18 03:47:39;;;;;;;13.83;7.13;;;4.90;99.90;;;;;;5011035;28;20192;-73
2020/12/18 03:50:06;;;;;;;12.60;8.63;;;4.90;99.90;;;;;;5010308;28;20198;-73
2020/12/18 03:52:32;;;;;;;8.83;6.10;;;4.90;99.90;;;;;;5009649;28;20661;-73
2020/12/18 03:54:57;;;;;;;10.40;7.50;;;4.80;99.90;;;;;;5010268;28;20521;-73
2020/12/18 03:57:24;;;;;;;13.83;7.33;;;4.80;99.90;;;;;;5012116;28;20939;-74
2020/12/18 03:59:50;;;;;;;8.50;6.50;;;4.90;99.90;;;;;;5003553;28;20223;-73
2020/12/18 04:02:16;;;;;;;10.60;7.00;;;4.80;99.90;;;;;;5011623;28;20923;-73
2020/12/18 04:04:41;;;;;;;13.90;8.53;;;4.80;99.90;;;;;;5011254;28;20214;-73
2020/12/18 04:07:07;;;;;;;21.97;8.10;;;4.80;99.90;;;;;;5011706;28;20180;-73
2020/12/18 04:09:33;;;;;;;8.10;6.13;;;4.80;99.90;;;;;;5011578;28;20530;-73
2020/12/18 04:11:58;;;;;;;9.90;6.90;;;4.80;99.90;;;;;;5009497;28;20572;-73
2020/12/18 04:14:24;;;;;;;12.70;7.47;;;4.70;99.90;;;;;;5004507;28;20680;-73
2020/12/18 04:16:49;;;;;;;14.20;7.13;;;4.70;99.90;;;;;;5010501;28;20219;-72
2020/12/18 04:19:15;;;;;;;9.90;8.10;;;4.80;99.90;;;;;;5010690;28;20251;-73
2020/12/18 04:21:41;;;;;;;13.70;8.20;;;4.80;99.90;;;;;;5010431;28;20200;-73
2020/12/18 04:24:06;;;;;;;11.50;8.10;;;4.80;99.90;;;;;;5009758;28;20191;-73
2020/12/18 04:26:32;;;;;;;10.50;7.53;;;4.90;99.90;;;;;;5011747;28;20226;-73
2020/12/18 04:28:58;;;;;;;14.97;7.93;;;4.90;99.90;;;;;;5011953;28;20172;-72
2020/12/18 04:31:23;;;;;;;15.40;7.10;;;5.00;99.90;;;;;;5011941;28;20184;-73
2020/12/18 04:33:49;;;;;;;9.97;7.83;;;5.00;99.90;;;;;;5005517;28;20226;-73
2020/12/18 04:36:14;;;;;;;11.53;7.30;;;5.00;99.90;;;;;;5027226;28;20676;-73
2020/12/18 04:38:40;;;;;;;13.93;8.33;;;5.00;99.90;;;;;;5011722;28;20239;-73
2020/12/18 04:41:06;;;;;;;8.50;6.43;;;5.00;99.90;;;;;;5010744;28;20257;-73
2020/12/18 04:43:32;;;;;;;14.07;7.30;;;5.10;99.90;;;;;;5010409;28;20639;-72
2020/12/18 04:45:59;;;;;;;10.07;7.20;;;5.10;99.90;;;;;;5010104;28;20566;-73
2020/12/18 04:48:26;;;;;;;14.30;7.90;;;5.00;99.90;;;;;;4997438;28;20235;-73
2020/12/18 04:50:54;;;;;;;16.53;7.67;;;4.90;99.90;;;;;;5009536;28;20443;-73
2020/12/18 04:53:28;;;;;;;12.70;8.80;;;5.00;99.90;;;;;;5004262;28;20431;-73
2020/12/18 04:55:55;;;;;;;15.23;8.47;;;4.90;99.90;;;;;;5010930;28;20889;-73
2020/12/18 04:58:24;;;;;;;23.60;10.70;;;4.90;99.90;;;;;;5011289;28;20430;-73
2020/12/18 05:00:56;;;;;;;10.57;8.07;;;4.90;99.90;;;;;;5011185;28;20443;-73
2020/12/18 05:03:21;;;;;;;15.10;8.10;;;4.90;99.90;;;;;;5011164;28;20462;-73
2020/12/18 05:05:47;;;;;;;16.07;9.93;;;4.80;99.90;;;;;;5011986;28;20454;-73
2020/12/18 05:08:13;;;;;;;8.33;7.33;;;4.80;99.90;;;;;;5011782;28;20884;-74
2020/12/18 05:10:39;;;;;;;10.77;7.30;;;4.70;99.90;;;;;;5013833;28;20460;-73
2020/12/18 05:13:05;;;;;;;10.77;8.60;;;4.70;99.90;;;;;;5013495;28;20184;-73
2020/12/18 05:15:33;;;;;;;18.03;9.20;;;4.70;99.90;;;;;;5014188;28;20664;-73
2020/12/18 05:17:59;;;;;;;13.90;8.43;;;4.70;99.90;;;;;;5013601;28;20451;-73
2020/12/18 05:20:26;;;;;;;20.37;8.77;;;4.60;99.90;;;;;;5013393;28;20504;-73
2020/12/18 05:22:54;;;;;;;12.50;9.50;;;4.70;99.90;;;;;;5013945;28;20437;-73
2020/12/18 05:25:20;;;;;;;14.10;8.40;;;4.80;99.90;;;;;;5014507;28;20885;-73
2020/12/18 05:27:46;;;;;;;12.73;8.57;;;4.90;99.90;;;;;;5014523;28;20461;-73
2020/12/18 05:30:12;;;;;;;14.40;8.60;;;4.90;99.90;;;;;;5015569;28;20601;-71
2020/12/18 05:32:38;;;;;;;8.80;7.20;;;4.90;99.90;;;;;;5045760;28;20430;-72
2020/12/18 05:35:04;;;;;;;11.37;8.30;;;5.00;99.90;;;;;;5012741;28;20441;-73
2020/12/18 05:37:40;;;;;;;16.73;7.77;;;5.00;99.90;;;;;;5011675;28;20827;-72
2020/12/18 05:40:06;;;;;;;16.07;6.77;;;5.00;99.90;;;;;;5022945;28;20451;-72
2020/12/18 05:42:48;;;;;;;14.07;7.93;;;4.90;99.90;;;;;;5014924;28;20411;-72
2020/12/18 05:45:18;;;;;;;12.73;7.47;;;4.90;99.90;;;;;;5013929;28;20494;-73
2020/12/18 05:48:01;;;;;;;15.27;9.90;;;4.90;99.90;;;;;;5005875;28;20442;-73
2020/12/18 05:50:31;;;;;;;10.90;7.83;;;4.80;99.90;;;;;;5008103;28;20801;-73
2020/12/18 05:52:59;;;;;;;21.33;8.07;;;4.80;99.90;;;;;;5011244;28;20521;-73
2020/12/18 05:55:25;;;;;;;11.43;6.50;;;4.80;99.90;;;;;;5013381;28;20489;-73
2020/12/18 05:57:53;;;;;;;11.97;7.70;;;4.70;99.90;;;;;;5012944;28;20797;-73
2020/12/18 06:00:21;;;;;;;12.50;6.60;;;4.70;99.90;;;;;;5013627;28;20443;-74
2020/12/18 06:03:00;;;;;;;10.13;6.80;;;4.60;99.90;;;;;;5012332;28;20517;-72
2020/12/18 06:05:26;;;;;;;11.53;6.57;;;4.50;99.90;;;;;;5012109;28;20462;-74
2020/12/18 06:07:53;;;;;;;12.50;7.30;;;4.40;99.90;;;;;;5003502;28;20457;-74
2020/12/18 06:10:25;;;;;;;11.60;6.50;;;4.50;99.90;;;;;;5012533;28;20443;-74
2020/12/18 06:13:00;;;;;;;10.53;7.30;;;4.60;99.90;;;;;;5010589;28;20454;-73
2020/12/18 06:15:26;;;;;;;12.47;7.30;;;4.50;99.90;;;;;;5012367;28;20792;-72
2020/12/18 06:17:54;;;;;;;7.70;5.43;;;4.50;99.90;;;;;;5044680;28;20442;-73
2020/12/18 06:20:20;;;;;;;10.30;7.70;;;4.60;99.90;;;;;;5011532;28;20463;-73
2020/12/18 06:22:59;;;;;;;12.63;7.20;;;4.40;99.90;;;;;;5013399;28;20438;-73
2020/12/18 06:25:25;;;;;;;12.80;7.60;;;4.40;99.90;;;;;;5012168;28;20203;-73
2020/12/18 06:27:59;;;;;;;15.83;7.27;;;4.30;99.90;;;;;;5013187;28;20859;-72
2020/12/18 06:30:28;;;;;;;11.20;7.30;;;4.40;99.90;;;;;;5011908;28;20206;-73
2020/12/18 06:32:54;;;;;;;15.50;8.40;;;4.50;99.90;;;;;;5012148;28;20439;-73
2020/12/18 06:35:36;;;;;;;15.27;8.23;;;4.40;99.90;;;;;;5028495;28;20510;-73
2020/12/18 06:38:14;;;;;;;14.47;8.30;;;4.50;99.90;;;;;;5025617;28;20435;-73
2020/12/18 06:40:41;;;;;;;8.47;6.83;;;4.50;99.90;;;;;;5008131;28;22109;-73
2020/12/18 06:43:06;;;;;;;14.13;7.07;;;4.50;99.90;;;;;;5005511;28;20796;-73
2020/12/18 06:45:32;;;;;;;10.00;6.90;;;4.60;99.90;;;;;;5010732;28;20512;-72
2020/12/18 06:47:58;;;;;;;12.70;7.97;;;4.60;99.90;;;;;;5011752;28;20188;-72
2020/12/18 06:50:32;;;;;;;9.30;6.67;;;4.60;99.90;;;;;;5012164;28;20540;-72
2020/12/18 06:53:04;;;;;;;10.07;7.00;;;4.60;99.90;;;;;;5010293;28;20168;-72
2020/12/18 06:55:30;;;;;;;15.20;7.73;;;4.50;99.90;;;;;;5043923;28;20435;-72
2020/12/18 06:58:07;;;;;;;12.13;7.27;;;4.60;99.90;;;;;;5012519;28;20433;-73
2020/12/18 07:00:47;;;;;;;9.50;7.27;;;4.60;99.90;;;;;;5011564;28;20254;-73
2020/12/18 07:03:31;;;;;;;16.40;8.07;;;4.40;99.90;;;;;;5012587;28;20962;-73
2020/12/18 07:06:04;;;;;;;9.77;7.30;;;4.40;99.90;;;;;;5009251;28;20442;-72
2020/12/18 07:08:32;;;;;;;10.10;7.67;;;4.50;99.90;;;;;;5011323;28;20431;-73
2020/12/18 07:11:03;;;;;;;14.17;8.47;;;4.60;99.90;;;;;;5007261;28;20991;-73
2020/12/18 07:13:30;;;;;;;10.90;7.70;;;4.50;99.90;;;;;;5012720;28;20424;-73
2020/12/18 07:16:07;;;;;;;10.90;7.97;;;4.60;99.90;;;;;;5012199;28;20517;-73
2020/12/18 07:18:42;;;;;;;10.23;7.50;;;4.70;99.90;;;;;;5006289;28;20450;-73
2020/12/18 07:21:14;;;;;;;9.00;6.87;;;4.80;99.90;;;;;;5011260;28;20450;-73
2020/12/18 07:23:52;;;;;;;12.50;7.20;;;4.80;99.90;;;;;;5011758;28;20459;-72
2020/12/18 07:26:19;;;;;;;14.60;8.53;;;4.80;99.90;;;;;;5011126;28;20549;-73
2020/12/18 07:28:45;;;;;;;10.53;7.50;;;4.70;99.90;;;;;;5012166;28;20438;-72
2020/12/18 07:31:25;;;;;;;17.27;9.00;;;4.70;99.90;;;;;;5011516;28;20465;-72
2020/12/18 07:33:55;;;;;;;15.63;9.17;;;4.80;99.90;;;;;;5012045;28;20820;-72
2020/12/18 07:36:22;;;;;;;15.47;9.17;;;4.80;99.90;;;;;;5010734;28;20441;-72
2020/12/18 07:38:48;;;;;;;10.33;8.67;;;4.90;99.90;;;;;;5009006;28;20419;-72
2020/12/18 07:41:17;;;;;;;15.77;9.87;;;4.90;99.90;;;;;;5011712;28;20824;-72
2020/12/18 07:43:45;;;;;;;21.20;9.63;;;4.90;99.90;;;;;;5009615;28;20459;-72
2020/12/18 07:46:13;;;;;;;13.27;9.20;;;5.00;99.90;;;;;;5011319;28;21026;-72
2020/12/18 07:48:40;;;;;;;16.53;9.13;;;5.10;99.90;;;;;;5011361;28;20545;-73
2020/12/18 07:51:20;;;;;;;15.60;9.40;;;5.10;99.90;;;;;;5009839;28;20896;-73
2020/12/18 07:53:47;;;;;;;14.30;10.20;;;5.10;99.90;;;;;;5010341;28;20928;-72
2020/12/18 07:56:17;;;;;;;18.03;9.77;;;5.20;99.90;;;;;;5009932;28;20435;-72
2020/12/18 07:58:53;;;;;;;13.90;10.33;;;5.20;99.90;;;;;;5011474;28;20427;-72
2020/12/18 08:01:27;;;;;;;13.80;9.50;;;5.30;99.90;;;;;;5009865;28;20807;-73
2020/12/18 08:04:00;;;;;;;14.30;9.13;;;5.30;99.90;;;;;;5010414;28;20463;-73
2020/12/18 08:06:28;;;;;;;16.77;10.20;;;5.40;99.90;;;;;;5007047;28;20427;-72
2020/12/18 08:08:55;;;;;;;15.00;10.33;;;5.40;99.90;;;;;;5009371;28;20427;-73
2020/12/18 08:11:23;;;;;;;15.73;9.60;;;5.60;99.90;;;;;;5008772;28;21025;-72
2020/12/18 08:13:49;;;;;;;12.00;9.20;;;5.60;99.90;;;;;;5011406;28;20916;-72
2020/12/18 08:16:20;;;;;;;13.20;8.10;;;5.90;99.90;;;;;;5009592;28;20771;-73
2020/12/18 08:18:49;;;;;;;10.70;8.30;;;6.30;99.90;;;;;;5010345;28;20423;-73
2020/12/18 08:21:18;;;;;;;11.03;6.33;;;7.10;99.90;;;;;;5004845;28;20451;-74
2020/12/18 08:23:52;;;;;;;6.97;5.43;;;7.70;99.90;;;;;;5011391;28;20512;-73
2020/12/18 08:26:20;;;;;;;11.50;4.90;;;8.20;99.90;;;;;;5009895;28;20435;-74
2020/12/18 08:28:46;;;;;;;5.53;4.93;;;9.10;99.90;;;;;;5011935;28;20412;-74
2020/12/18 08:31:14;;;;;;;6.37;4.13;;;10.10;99.90;;;;;;5009807;28;20454;-74
2020/12/18 08:33:54;;;;;;;5.00;3.70;;;11.30;99.90;;;;;;5010939;28;20435;-73
2020/12/18 08:36:23;;;;;;;4.50;3.60;;;12.00;99.90;;;;;;5002988;28;20462;-74
2020/12/18 08:39:03;;;;;;;9.40;3.40;;;12.90;99.90;;;;;;5024569;28;20470;-74
2020/12/18 08:41:43;;;;;;;5.93;3.33;;;13.40;99.90;;;;;;5014418;28;20457;-74
2020/12/18 08:44:11;;;;;;;4.07;3.63;;;13.10;99.90;;;;;;5015199;28;20545;-73
2020/12/18 08:46:37;;;;;;;11.97;4.30;;;13.10;99.90;;;;;;5014427;28;20465;-73
2020/12/18 08:49:12;;;;;;;8.50;3.73;;;12.60;99.90;;;;;;5006314;28;20457;-72
2020/12/18 08:51:38;;;;;;;4.03;3.07;;;12.50;99.90;;;;;;5012332;28;20446;-74
2020/12/18 08:54:27;;;;;;;10.93;4.30;;;11.60;99.90;;;;;;5010077;28;20431;-73
2020/12/18 08:57:27;;;;;;;6.73;3.47;;;11.90;99.90;;;;;;5006312;28;20782;-74
2020/12/18 09:00:14;;;;;;;8.37;3.67;;;12.20;99.90;;;;;;5014552;28;20431;-74
2020/12/18 09:02:44;;;;;;;3.53;3.17;;;12.30;99.90;;;;;;5015342;28;20446;-73
2020/12/18 09:05:23;;;;;;;7.50;3.50;;;12.50;99.90;;;;;;5006564;28;20496;-73
2020/12/18 09:07:56;;;;;;;4.97;3.53;;;12.50;99.90;;;;;;5046936;28;20808;-74
2020/12/18 09:10:39;;;;;;;3.73;3.40;;;12.30;99.90;;;;;;5003528;28;21002;-73
2020/12/18 09:13:14;;;;;;;3.83;3.37;;;12.40;99.90;;;;;;5014658;28;20466;-73
2020/12/18 09:15:41;;;;;;;3.80;3.47;;;12.00;99.90;;;;;;5015856;28;20955;-73
2020/12/18 09:18:11;;;;;;;3.90;2.97;;;11.70;99.90;;;;;;5013201;28;20439;-73
2020/12/18 09:20:40;;;;;;;5.33;3.37;;;11.40;99.90;;;;;;5041830;28;20807;-74
2020/12/18 09:23:11;;;;;;;7.13;3.60;;;11.60;99.90;;;;;;5014243;28;20439;-73
2020/12/18 09:25:40;;;;;;;7.67;3.67;;;11.40;99.90;;;;;;5012855;28;20454;-74
2020/12/18 09:28:13;;;;;;;5.67;2.93;;;11.70;99.90;;;;;;5013459;28;21263;-73
2020/12/18 09:30:44;;;;;;;4.70;3.93;;;12.00;99.90;;;;;;5015619;28;20592;-74
2020/12/18 09:33:24;;;;;;;6.10;4.20;;;11.80;99.90;;;;;;5016197;28;20435;-73
2020/12/18 09:36:01;;;;;;;5.60;3.83;;;12.00;99.90;;;;;;5014647;28;20474;-73
2020/12/18 09:38:32;;;;;;;5.20;3.47;;;11.90;99.90;;;;;;5014476;28;20434;-73
2020/12/18 09:41:00;;;;;;;5.63;3.40;;;11.60;99.90;;;;;;5015064;28;20482;-74
2020/12/18 09:43:27;;;;;;;8.93;3.50;;;11.30;99.90;;;;;;5015575;28;20438;-73
2020/12/18 09:45:53;;;;;;;8.20;3.60;;;10.90;99.90;;;;;;5014885;28;20438;-73
2020/12/18 09:48:19;;;;;;;8.50;4.43;;;10.30;99.90;;;;;;5015254;28;20442;-73
2020/12/18 09:50:45;;;;;;;5.40;4.10;;;9.90;99.90;;;;;;5047326;28;20566;-73
2020/12/18 09:53:11;;;;;;;4.60;3.70;;;9.80;99.90;;;;;;5027989;28;20435;-73
2020/12/18 09:55:36;;;;;;;6.47;4.20;;;9.50;99.90;;;;;;5014343;28;20960;-73
2020/12/18 09:58:03;;;;;;;6.53;3.77;;;9.30;99.90;;;;;;5011719;28;20195;-72
2020/12/18 10:00:29;;;;;;;8.50;4.20;;;9.10;99.90;;;;;;5009590;28;20192;-73
2020/12/18 10:02:56;;;;;;;6.00;4.20;;;8.90;99.90;;;;;;5013410;28;20767;-72
2020/12/18 10:05:22;;;;;;;4.83;3.90;;;8.80;99.90;;;;;;5016392;28;20454;-73
2020/12/18 10:07:47;;;;;;;4.93;4.13;;;8.60;99.90;;;;;;5003617;28;20438;-73
2020/12/18 10:10:13;;;;;;;7.20;4.60;;;8.50;99.90;;;;;;5011800;28;20564;-73
2020/12/18 10:12:39;;;;;;;4.83;3.70;;;8.50;99.90;;;;;;5030119;28;20172;-73
2020/12/18 10:15:06;;;;;;;5.13;4.13;;;8.50;99.90;;;;;;5016007;28;20271;-72
2020/12/18 10:17:31;;;;;;;7.50;3.97;;;8.60;99.90;;;;;;5015932;28;20283;-73
2020/12/18 10:19:57;;;;;;;8.43;3.97;;;8.80;99.90;;;;;;5015538;28;20486;-73
2020/12/18 10:22:22;;;;;;;7.10;4.40;;;9.10;99.90;;;;;;5014426;28;20211;-73
2020/12/18 10:24:48;;;;;;;4.60;4.10;;;9.50;99.90;;;;;;5014655;28;20290;-73
2020/12/18 10:27:13;;;;;;;5.00;4.50;;;9.80;99.90;;;;;;5047532;28;20222;-74
2020/12/18 10:29:39;;;;;;;10.47;5.20;;;10.10;99.90;;;;;;5031312;28;20274;-73
2020/12/18 10:32:05;;;;;;;5.73;4.33;;;10.30;99.90;;;;;;5015237;28;20200;-73
2020/12/18 10:34:31;;;;;;;5.00;4.17;;;10.60;99.90;;;;;;5001054;28;20447;-73
2020/12/18 10:36:57;;;;;;;9.73;5.03;;;10.80;99.90;;;;;;5006928;28;20183;-73
2020/12/18 10:39:23;;;;;;;5.10;4.60;;;11.20;99.90;;;;;;5015737;28;20184;-73
2020/12/18 10:41:50;;;;;;;5.60;4.90;;;11.70;99.90;;;;;;5014900;28;20486;-73
2020/12/18 10:44:16;;;;;;;8.80;4.20;;;12.00;99.90;;;;;;5015419;28;20544;-74
2020/12/18 10:46:44;;;;;;;5.30;4.37;;;12.30;99.90;;;;;;5013880;28;20485;-74
2020/12/18 10:49:10;;;;;;;4.57;4.13;;;12.40;99.90;;;;;;4996724;28;20448;-74
2020/12/18 10:51:42;;;;;;;4.40;4.00;;;12.60;99.90;;;;;;5042135;28;20454;-74
2020/12/18 10:54:08;;;;;;;5.87;3.87;;;13.00;99.90;;;;;;5014025;28;20204;-73
2020/12/18 10:56:45;;;;;;;6.30;3.80;;;13.30;99.90;;;;;;5015063;28;20408;-74
2020/12/18 10:59:11;;;;;;;5.10;3.37;;;13.80;99.90;;;;;;5013911;28;20431;-74
2020/12/18 11:01:38;;;;;;;3.60;3.30;;;13.80;99.90;;;;;;5011460;28;20524;-74
2020/12/18 11:04:04;;;;;;;15.43;4.63;;;13.70;99.90;;;;;;5012601;28;20459;-73
2020/12/18 11:06:29;;;;;;;6.40;4.20;;;13.20;99.90;;;;;;5014631;28;20502;-74
2020/12/18 11:08:55;;;;;;;5.03;3.90;;;12.70;99.90;;;;;;5028546;28;20606;-74
2020/12/18 11:11:21;;;;;;;5.53;3.77;;;12.70;99.90;;;;;;5011839;28;20494;-74
2020/12/18 11:13:47;;;;;;;4.10;3.80;;;12.70;99.90;;;;;;5010231;28;20773;-73
2020/12/18 11:16:15;;;;;;;8.00;3.87;;;12.80;99.90;;;;;;5013990;28;20571;-74
2020/12/18 11:18:40;;;;;;;5.83;3.90;;;13.40;99.90;;;;;;5012219;28;20172;-74
2020/12/18 11:21:07;;;;;;;5.03;4.10;;;13.70;99.90;;;;;;5012426;28;20442;-74
2020/12/18 11:23:35;;;;;;;5.10;3.83;;;13.90;99.90;;;;;;5041357;28;20185;-74
2020/12/18 11:26:02;;;;;;;7.70;3.50;;;13.80;99.90;;;;;;5012864;28;20458;-74
2020/12/18 11:28:27;;;;;;;4.57;3.70;;;14.00;99.90;;;;;;5012327;28;20908;-74
2020/12/18 11:30:53;;;;;;;7.30;3.57;;;14.30;99.90;;;;;;5012240;28;20454;-73
2020/12/18 11:33:19;;;;;;;5.00;3.60;;;14.40;99.90;;;;;;5011295;28;20244;-74
2020/12/18 11:35:44;;;;;;;6.37;4.03;;;14.60;99.90;;;;;;5011692;28;20661;-74
2020/12/18 11:38:10;;;;;;;7.77;4.87;;;15.10;99.90;;;;;;5010374;28;20176;-73
2020/12/18 11:40:37;;;;;;;8.47;4.40;;;14.90;99.90;;;;;;5012117;28;20200;-74
2020/12/18 11:43:03;;;;;;;9.20;4.20;;;15.00;99.90;;;;;;5010296;28;20176;-74
2020/12/18 11:45:29;;;;;;;4.67;3.60;;;15.40;99.90;;;;;;5012132;28;21118;-74
2020/12/18 11:47:54;;;;;;;4.77;4.10;;;15.60;99.90;;;;;;5011655;28;20473;-74
2020/12/18 11:50:20;;;;;;;5.53;4.30;;;16.00;99.90;;;;;;5011407;28;20569;-74
2020/12/18 11:52:46;;;;;;;4.87;3.70;;;16.00;99.90;;;;;;5027416;28;20187;-74
2020/12/18 11:55:12;;;;;;;9.13;4.23;;;15.80;99.90;;;;;;5011292;28;20184;-74
2020/12/18 11:57:37;;;;;;;6.47;5.10;;;16.20;99.90;;;;;;5012503;28;20438;-73
2020/12/18 12:00:04;;;;;;;6.03;4.40;;;15.80;99.90;;;;;;5012803;28;20548;-73
2020/12/18 12:02:33;;;;;;;5.87;4.10;;;15.80;99.90;;;;;;5009854;28;20180;-72
2020/12/18 12:04:59;;;;;;;5.77;3.57;;;15.50;99.90;;;;;;5037785;28;20466;-73
2020/12/18 12:07:25;;;;;;;4.67;3.97;;;15.60;99.90;;;;;;5007522;28;20435;-71
2020/12/18 12:09:51;;;;;;;6.10;4.33;;;15.10;99.90;;;;;;5039281;28;20462;-74
2020/12/18 12:12:17;;;;;;;7.93;3.37;;;15.00;99.90;;;;;;5008351;28;20435;-72
2020/12/18 12:14:42;;;;;;;7.30;4.70;;;14.80;99.90;;;;;;5008782;28;20188;-74
2020/12/18 12:17:08;;;;;;;7.40;4.60;;;14.70;99.90;;;;;;5012539;28;20224;-74
2020/12/18 12:19:34;;;;;;;9.00;5.17;;;14.80;99.90;;;;;;5044289;28;20196;-74
2020/12/18 12:22:00;;;;;;;6.30;3.87;;;14.40;99.90;;;;;;5015844;28;20843;-74
2020/12/18 12:24:25;;;;;;;4.33;3.93;;;14.50;99.90;;;;;;5016158;28;20291;-73
2020/12/18 12:26:51;;;;;;;5.40;4.70;;;14.60;99.90;;;;;;5032373;28;20176;-73
2020/12/18 12:29:17;;;;;;;6.07;4.70;;;14.40;99.90;;;;;;5017120;28;20191;-74
2020/12/18 12:31:43;;;;;;;6.17;4.13;;;14.10;99.90;;;;;;5015626;28;20227;-72
2020/12/18 12:34:09;;;;;;;8.07;4.53;;;14.10;99.90;;;;;;5014984;28;20947;-74
2020/12/18 12:36:35;;;;;;;4.73;3.80;;;14.10;99.90;;;;;;5006069;28;20184;-73
2020/12/18 12:39:00;;;;;;;4.40;4.00;;;14.10;99.90;;;;;;5015529;28;20238;-73
2020/12/18 12:41:26;;;;;;;5.50;4.30;;;14.20;99.90;;;;;;5032484;28;20231;-74
2020/12/18 12:43:52;;;;;;;5.30;4.17;;;14.10;99.90;;;;;;5030074;28;20219;-73
2020/12/18 12:46:20;;;;;;;9.60;3.83;;;14.10;99.90;;;;;;5015949;28;20700;-72
2020/12/18 12:48:46;;;;;;;5.33;4.33;;;14.50;99.90;;;;;;5015937;28;20516;-72
2020/12/18 12:51:14;;;;;;;6.33;4.20;;;14.40;99.90;;;;;;5016068;28;20509;-73
2020/12/18 12:53:40;;;;;;;8.20;4.07;;;14.50;99.90;;;;;;5017044;28;20851;-73